Time;durP1;ratioP1;P1;durP2;ratioP2;P2;SDS_P1;SDS_P2;PMS_P1;PMS_P2;Temp;Humidity;BMP_temperature;BMP_pressure;BME280_temperature;BME280_humidity;BME280_pressure;Samples;Min_cycle;Max_cycle;Signal;HPM_P1;HPM_P2
2021/01/17 07:07:36;;;;;;;0.45;0.45;;;17.30;65.80;;;;;;5128333;27;20765;-50
2021/01/17 07:10:04;;;;;;;0.80;0.80;;;17.60;65.50;;;;;;5123630;27;20055;-50
2021/01/17 07:12:46;;;;;;;1.00;0.70;;;17.60;65.30;;;;;;5108189;28;20024;-49
2021/01/17 07:15:12;;;;;;;0.82;0.75;;;17.60;65.20;;;;;;5109672;27;20023;-50
2021/01/17 07:17:39;;;;;;;0.90;0.60;;;17.70;65.00;;;;;;5114283;28;20031;-50
2021/01/17 07:20:10;;;;;;;0.65;0.50;;;17.70;64.90;;;;;;5112266;28;20031;-51
2021/01/17 07:22:36;;;;;;;0.93;0.55;;;17.70;65.00;;;;;;5112200;28;20085;-53
2021/01/17 07:25:03;;;;;;;0.57;0.45;;;17.70;64.70;;;;;;5110652;28;20039;-46
2021/01/17 07:27:56;;;;;;;0.80;0.65;;;17.80;64.60;;;;;;5107904;28;20144;-51
2021/01/17 07:30:49;;;;;;;0.90;0.60;;;17.70;64.60;;;;;;5106810;28;20024;-47
2021/01/17 07:33:16;;;;;;;0.60;0.50;;;17.70;64.70;;;;;;5122277;28;20035;-54
2021/01/17 07:35:46;;;;;;;0.50;0.40;;;17.70;64.60;;;;;;5113946;28;20043;-51
2021/01/17 07:38:15;;;;;;;0.68;0.60;;;17.80;64.50;;;;;;5111759;28;20034;-48
2021/01/17 07:40:50;;;;;;;0.63;0.50;;;17.80;64.60;;;;;;5111171;28;20039;-49
2021/01/17 07:43:17;;;;;;;1.88;0.70;;;17.80;65.10;;;;;;5111813;28;20035;-50
2021/01/17 07:45:43;;;;;;;1.08;0.52;;;17.80;64.40;;;;;;5109443;28;20040;-49
2021/01/17 07:48:10;;;;;;;0.70;0.65;;;17.80;64.50;;;;;;5109971;27;20012;-51
2021/01/17 07:50:37;;;;;;;0.90;0.50;;;17.80;64.50;;;;;;5123899;28;20019;-51
2021/01/17 07:53:04;;;;;;;1.15;0.50;;;17.70;64.40;;;;;;5114166;27;20085;-54
2021/01/17 07:55:29;;;;;;;0.40;0.40;;;17.70;64.40;;;;;;5108396;28;20395;-54
2021/01/17 07:57:55;;;;;;;0.80;0.63;;;17.70;64.40;;;;;;5121957;28;20027;-53
2021/01/17 08:00:25;;;;;;;1.95;0.77;;;17.80;64.40;;;;;;5106262;28;20120;-54
2021/01/17 08:02:50;;;;;;;0.73;0.60;;;17.80;64.40;;;;;;5112021;28;20069;-55
2021/01/17 08:05:16;;;;;;;0.65;0.63;;;17.80;64.50;;;;;;5110086;28;20055;-52
2021/01/17 08:07:41;;;;;;;0.82;0.60;;;17.70;64.20;;;;;;5096061;28;20028;-53
2021/01/17 08:10:07;;;;;;;0.63;0.52;;;17.70;64.50;;;;;;5093891;28;20030;-54
2021/01/17 08:12:42;;;;;;;0.50;0.50;;;17.70;64.30;;;;;;5104321;28;20035;-54
2021/01/17 08:15:22;;;;;;;0.63;0.50;;;17.80;64.40;;;;;;5096077;28;20058;-54
2021/01/17 08:17:47;;;;;;;0.65;0.60;;;17.80;64.30;;;;;;5098746;28;20036;-54
2021/01/17 08:20:20;;;;;;;0.40;0.40;;;17.80;64.20;;;;;;5097168;28;20026;-52
2021/01/17 08:22:46;;;;;;;0.65;0.50;;;17.80;64.20;;;;;;5095742;28;20028;-55
2021/01/17 08:25:12;;;;;;;0.90;0.40;;;17.80;64.30;;;;;;5095602;28;20123;-49
2021/01/17 08:27:47;;;;;;;0.98;0.60;;;17.80;64.10;;;;;;5093506;28;20147;-54
2021/01/17 08:30:17;;;;;;;0.80;0.57;;;17.70;64.20;;;;;;5094187;28;20054;-54
2021/01/17 08:32:55;;;;;;;0.60;0.52;;;17.80;64.10;;;;;;5099234;28;20024;-55
2021/01/17 08:35:22;;;;;;;0.68;0.47;;;17.80;64.00;;;;;;5103999;28;20473;-54
2021/01/17 08:38:13;;;;;;;0.70;0.50;;;17.80;64.20;;;;;;5101391;28;20024;-54
2021/01/17 08:40:38;;;;;;;1.27;0.80;;;17.80;64.10;;;;;;5099318;28;20026;-51
2021/01/17 08:43:08;;;;;;;0.60;0.50;;;17.80;63.90;;;;;;5100136;28;20031;-54
2021/01/17 08:45:37;;;;;;;0.77;0.60;;;17.70;64.00;;;;;;5092282;28;20028;-54
2021/01/17 08:48:18;;;;;;;1.05;0.55;;;17.80;63.70;;;;;;5111146;28;20038;-54
2021/01/17 08:50:48;;;;;;;0.60;0.60;;;17.70;63.70;;;;;;5099044;28;20028;-51
2021/01/17 08:53:14;;;;;;;4.18;0.70;;;17.70;63.60;;;;;;5096712;28;20055;-54
2021/01/17 08:55:40;;;;;;;0.40;0.40;;;17.70;63.60;;;;;;5096780;28;20024;-55
2021/01/17 08:58:06;;;;;;;4.30;0.93;;;17.70;63.70;;;;;;5093179;28;20043;-52
2021/01/17 09:00:51;;;;;;;1.35;0.60;;;17.70;64.00;;;;;;5107004;28;20081;-51
2021/01/17 09:03:35;;;;;;;2.15;0.70;;;17.70;64.00;;;;;;5092357;28;20040;-52
2021/01/17 09:06:04;;;;;;;1.50;0.70;;;17.70;63.90;;;;;;5073670;28;20095;-37
2021/01/17 09:08:30;;;;;;;0.75;0.70;;;17.70;64.30;;;;;;5073616;28;21364;-35
2021/01/17 09:10:56;;;;;;;0.60;0.60;;;17.80;64.20;;;;;;5088688;28;20040;-35
2021/01/17 09:13:23;;;;;;;0.60;0.60;;;17.90;65.40;;;;;;5088716;28;20035;-33
2021/01/17 09:16:04;;;;;;;1.58;0.82;;;17.90;63.80;;;;;;5093835;28;20038;-33
2021/01/17 09:18:34;;;;;;;1.05;0.50;;;17.80;64.40;;;;;;5075613;28;20017;-34
2021/01/17 09:21:00;;;;;;;0.85;0.63;;;17.90;64.50;;;;;;5095889;28;20034;-34
2021/01/17 09:23:25;;;;;;;1.08;0.55;;;17.90;64.90;;;;;;5096433;28;20099;-33
2021/01/17 09:25:58;;;;;;;2.35;0.82;;;17.90;64.60;;;;;;5100753;28;20031;-35
2021/01/17 09:28:25;;;;;;;1.08;0.55;;;17.90;65.30;;;;;;5098961;28;20020;-33
2021/01/17 09:30:51;;;;;;;3.72;0.88;;;17.90;65.30;;;;;;5094861;28;20082;-32
2021/01/17 09:33:17;;;;;;;1.33;1.13;;;17.90;66.70;;;;;;5092227;28;20025;-35
2021/01/17 09:35:43;;;;;;;1.95;0.70;;;18.00;66.30;;;;;;5092445;28;20111;-35
2021/01/17 09:38:12;;;;;;;0.70;0.70;;;18.00;66.90;;;;;;5088378;28;20118;-36
2021/01/17 09:40:42;;;;;;;1.23;0.70;;;18.00;66.30;;;;;;5091079;28;20425;-35
2021/01/17 09:43:08;;;;;;;1.70;0.75;;;18.10;66.20;;;;;;5096957;28;20561;-34
2021/01/17 09:45:34;;;;;;;1.13;0.90;;;18.20;65.80;;;;;;5097440;28;20035;-34
2021/01/17 09:48:00;;;;;;;4.47;1.30;;;18.20;65.50;;;;;;5089996;28;20377;-34
2021/01/17 09:50:30;;;;;;;3.40;1.00;;;18.30;65.80;;;;;;5103735;28;20028;-34
2021/01/17 09:53:06;;;;;;;2.83;0.70;;;18.30;65.60;;;;;;5099446;28;20026;-34
2021/01/17 09:55:32;;;;;;;1.23;0.70;;;18.30;66.00;;;;;;5094531;28;20038;-34
2021/01/17 09:57:59;;;;;;;2.38;1.00;;;18.30;66.30;;;;;;5094224;28;20023;-37
2021/01/17 10:00:25;;;;;;;2.10;0.88;;;18.40;66.00;;;;;;5075331;28;20057;-34
2021/01/17 10:02:51;;;;;;;2.22;1.02;;;18.30;66.60;;;;;;5092977;28;20058;-35
2021/01/17 10:05:26;;;;;;;5.45;0.75;;;18.40;66.00;;;;;;5093734;28;20108;-38
2021/01/17 10:08:02;;;;;;;2.45;0.70;;;18.50;66.10;;;;;;5088193;28;20557;-38
2021/01/17 10:10:28;;;;;;;1.45;0.63;;;18.60;65.80;;;;;;5093300;28;20015;-35
2021/01/17 10:12:53;;;;;;;4.20;1.02;;;18.70;65.90;;;;;;5085465;28;20053;-37
2021/01/17 10:15:19;;;;;;;1.52;0.90;;;18.70;65.80;;;;;;5086387;28;20035;-37
2021/01/17 10:17:48;;;;;;;2.65;0.57;;;18.80;65.50;;;;;;5087904;28;20067;-37
2021/01/17 10:20:37;;;;;;;1.95;0.80;;;18.80;65.30;;;;;;5089524;28;20031;-37
2021/01/17 10:23:12;;;;;;;1.83;0.77;;;18.80;65.30;;;;;;5086077;28;20514;-37
2021/01/17 10:25:38;;;;;;;1.58;0.95;;;18.70;65.30;;;;;;5088524;28;20111;-36
2021/01/17 10:28:07;;;;;;;5.03;0.80;;;18.70;65.50;;;;;;5087287;28;20103;-37
2021/01/17 10:30:34;;;;;;;2.33;0.85;;;18.70;65.80;;;;;;5085428;28;20111;-37
2021/01/17 10:33:07;;;;;;;2.15;0.90;;;18.70;66.10;;;;;;5090686;28;20066;-34
2021/01/17 10:35:36;;;;;;;3.42;1.00;;;18.70;66.10;;;;;;5099786;28;20164;-37
2021/01/17 10:38:06;;;;;;;2.78;0.90;;;18.70;66.50;;;;;;5094714;28;20028;-38
2021/01/17 10:40:32;;;;;;;2.58;0.73;;;18.70;67.00;;;;;;5094011;28;20027;-36
2021/01/17 10:43:01;;;;;;;1.88;0.80;;;18.70;66.70;;;;;;5090886;28;20073;-38
2021/01/17 10:45:27;;;;;;;2.28;1.00;;;18.70;66.50;;;;;;5089103;28;20080;-34
2021/01/17 10:48:05;;;;;;;1.20;0.73;;;18.70;66.40;;;;;;5087397;28;20024;-36
2021/01/17 10:51:01;;;;;;;0.82;0.70;;;18.70;66.40;;;;;;5088219;28;20063;-37
2021/01/17 10:53:32;;;;;;;2.30;0.60;;;18.80;66.30;;;;;;5093538;28;20040;-39
2021/01/17 10:55:58;;;;;;;1.52;0.60;;;18.80;66.40;;;;;;5087948;28;20031;-35
2021/01/17 10:58:26;;;;;;;1.05;0.90;;;18.80;66.60;;;;;;5090132;28;20027;-37
2021/01/17 11:00:56;;;;;;;2.65;0.60;;;18.80;66.00;;;;;;5086375;28;20016;-37
2021/01/17 11:03:43;;;;;;;1.30;0.80;;;18.80;65.50;;;;;;5090471;28;20059;-36
2021/01/17 11:06:16;;;;;;;1.10;0.80;;;18.70;65.60;;;;;;5092257;28;20511;-36
2021/01/17 11:08:45;;;;;;;2.15;1.00;;;18.80;65.70;;;;;;5098302;28;20028;-37
2021/01/17 11:11:12;;;;;;;4.32;1.20;;;18.80;65.50;;;;;;5098196;28;20050;-35
2021/01/17 11:13:37;;;;;;;3.60;1.30;;;18.80;65.40;;;;;;4745229;28;10000027;-35
2021/01/17 11:16:04;;;;;;;3.22;0.98;;;18.80;65.10;;;;;;5094197;28;20288;-37
2021/01/17 11:18:30;;;;;;;5.18;0.98;;;18.80;65.10;;;;;;5090057;28;20031;-37
2021/01/17 11:20:59;;;;;;;1.65;1.10;;;18.80;65.10;;;;;;5095873;28;20107;-36
2021/01/17 11:23:26;;;;;;;2.20;1.15;;;18.90;65.10;;;;;;5093237;28;20034;-36
2021/01/17 11:26:02;;;;;;;1.75;0.95;;;18.80;65.10;;;;;;5093323;28;20122;-37
2021/01/17 11:28:28;;;;;;;2.85;1.30;;;18.90;65.30;;;;;;5085742;28;20035;-35
2021/01/17 11:31:13;;;;;;;1.85;1.10;;;18.80;64.80;;;;;;5094052;28;20028;-36
2021/01/17 11:33:39;;;;;;;1.05;0.70;;;18.80;64.80;;;;;;5090358;28;20095;-37
2021/01/17 11:36:05;;;;;;;1.73;0.77;;;18.90;65.10;;;;;;5087929;28;20111;-36
2021/01/17 11:38:48;;;;;;;1.52;0.77;;;18.90;65.10;;;;;;5089728;28;20021;-35
2021/01/17 11:41:16;;;;;;;1.80;0.93;;;18.80;65.20;;;;;;5094198;28;20038;-35
2021/01/17 11:43:42;;;;;;;3.67;0.85;;;18.80;66.20;;;;;;5097742;28;20046;-38
2021/01/17 11:46:09;;;;;;;2.03;0.93;;;18.80;65.20;;;;;;5096938;28;20512;-35
2021/01/17 11:48:34;;;;;;;1.67;0.90;;;18.80;65.20;;;;;;5091077;28;20024;-37
2021/01/17 11:51:00;;;;;;;2.53;1.00;;;18.80;65.50;;;;;;5095273;28;20031;-34
2021/01/17 11:53:27;;;;;;;5.93;1.15;;;18.80;65.70;;;;;;5109414;28;20123;-36
2021/01/17 11:55:52;;;;;;;1.85;1.20;;;18.80;65.40;;;;;;5108042;27;20024;-35
2021/01/17 11:58:18;;;;;;;2.58;1.52;;;18.70;65.40;;;;;;5102818;27;20031;-39
2021/01/17 12:01:01;;;;;;;2.28;1.00;;;18.90;65.20;;;;;;5090804;28;20465;-39
2021/01/17 12:03:36;;;;;;;2.90;0.95;;;18.90;65.20;;;;;;5087805;28;20035;-39
2021/01/17 12:06:12;;;;;;;4.35;0.90;;;18.80;64.80;;;;;;5103394;28;20052;-38
2021/01/17 12:09:03;;;;;;;2.72;0.98;;;18.80;64.80;;;;;;5091788;28;20032;-36
2021/01/17 12:11:31;;;;;;;3.00;0.75;;;18.70;64.90;;;;;;5093048;28;20035;-36
2021/01/17 12:13:58;;;;;;;2.20;1.35;;;18.80;64.80;;;;;;5088985;28;20035;-38
2021/01/17 12:16:37;;;;;;;2.00;1.00;;;18.80;65.00;;;;;;5090652;28;20396;-35
2021/01/17 12:19:04;;;;;;;2.42;0.75;;;18.80;65.10;;;;;;5092064;28;20035;-42
2021/01/17 12:21:30;;;;;;;1.98;0.82;;;18.80;65.00;;;;;;5074231;28;20036;-40
2021/01/17 12:23:56;;;;;;;2.50;1.25;;;18.80;65.00;;;;;;5094702;28;20053;-36
2021/01/17 12:26:21;;;;;;;1.85;0.73;;;18.80;65.00;;;;;;5077131;28;20036;-32
2021/01/17 12:28:47;;;;;;;1.02;0.82;;;18.90;64.80;;;;;;5080125;28;20024;-36
2021/01/17 12:31:13;;;;;;;1.30;1.10;;;18.90;64.80;;;;;;5082060;28;20035;-50
2021/01/17 12:33:39;;;;;;;2.08;1.00;;;18.90;64.70;;;;;;5082662;28;20077;-41
2021/01/17 12:36:11;;;;;;;1.30;0.70;;;18.90;64.60;;;;;;5082125;28;20032;-43
2021/01/17 12:38:37;;;;;;;3.50;1.13;;;18.90;64.40;;;;;;5081750;28;20044;-38
2021/01/17 12:41:11;;;;;;;1.83;0.80;;;18.90;64.20;;;;;;5081480;28;20043;-37
2021/01/17 12:43:37;;;;;;;1.23;0.75;;;18.90;65.10;;;;;;5084762;28;20051;-39
2021/01/17 12:46:06;;;;;;;1.55;0.90;;;18.80;64.50;;;;;;5080532;28;20087;-40
2021/01/17 12:48:32;;;;;;;1.40;1.02;;;18.80;64.80;;;;;;5087711;27;20047;-40
2021/01/17 12:50:58;;;;;;;1.20;0.75;;;18.70;64.70;;;;;;5088221;28;20573;-41
2021/01/17 12:53:23;;;;;;;0.75;0.47;;;18.80;64.40;;;;;;5089334;27;20048;-37
2021/01/17 12:55:49;;;;;;;1.95;0.80;;;18.80;64.20;;;;;;5088987;28;20055;-44
2021/01/17 12:58:15;;;;;;;1.23;0.80;;;18.80;64.40;;;;;;5090022;27;20051;-43
2021/01/17 13:00:40;;;;;;;2.72;0.95;;;18.80;64.80;;;;;;5089400;28;20071;-42
2021/01/17 13:03:06;;;;;;;1.13;0.85;;;18.80;64.70;;;;;;5089713;28;20429;-41
2021/01/17 13:05:32;;;;;;;1.40;0.80;;;18.90;64.10;;;;;;5090081;27;20104;-41
2021/01/17 13:07:58;;;;;;;0.90;0.60;;;18.90;63.70;;;;;;5088178;28;20047;-42
2021/01/17 13:10:23;;;;;;;2.65;0.75;;;19.00;63.30;;;;;;5086672;28;20036;-40
2021/01/17 13:12:49;;;;;;;1.15;0.60;;;19.10;63.40;;;;;;5087401;28;20055;-40
2021/01/17 13:15:15;;;;;;;3.25;0.80;;;19.00;63.30;;;;;;5088277;28;20040;-41
2021/01/17 13:17:41;;;;;;;1.40;0.60;;;19.00;63.50;;;;;;5090103;28;20044;-40
2021/01/17 13:20:07;;;;;;;1.30;1.02;;;19.10;63.30;;;;;;5087790;28;20075;-43
2021/01/17 13:22:32;;;;;;;0.77;0.73;;;19.10;63.50;;;;;;5085319;28;20035;-40
2021/01/17 13:24:59;;;;;;;2.10;0.90;;;19.00;63.40;;;;;;5085818;28;20047;-44
2021/01/17 13:27:25;;;;;;;2.47;0.73;;;19.10;63.40;;;;;;5087134;28;20071;-41
2021/01/17 13:29:51;;;;;;;1.25;0.77;;;19.00;63.30;;;;;;5088752;28;20513;-38
2021/01/17 13:32:16;;;;;;;0.82;0.73;;;18.90;63.50;;;;;;5084880;28;20066;-38
2021/01/17 13:34:42;;;;;;;0.88;0.70;;;18.80;63.60;;;;;;5079840;28;20405;-38
2021/01/17 13:37:10;;;;;;;0.82;0.63;;;18.80;63.80;;;;;;5082881;28;20084;-39
2021/01/17 13:39:37;;;;;;;0.57;0.50;;;18.80;63.50;;;;;;5084406;28;20079;-39
2021/01/17 13:42:03;;;;;;;1.15;0.60;;;18.90;63.40;;;;;;5088445;28;20055;-39
2021/01/17 13:44:28;;;;;;;1.38;0.68;;;19.00;63.00;;;;;;5083434;28;20056;-46
2021/01/17 13:46:54;;;;;;;0.80;0.60;;;19.10;62.50;;;;;;5086629;28;20040;-40
2021/01/17 13:49:20;;;;;;;2.55;0.93;;;19.10;62.70;;;;;;5083136;28;20117;-40
2021/01/17 13:51:46;;;;;;;1.00;0.80;;;19.10;62.70;;;;;;5085320;27;20610;-42
2021/01/17 13:54:11;;;;;;;0.90;0.80;;;19.00;62.80;;;;;;5085116;28;20036;-44
2021/01/17 13:56:37;;;;;;;1.00;0.90;;;19.00;62.80;;;;;;5084642;28;20723;-42
2021/01/17 13:59:03;;;;;;;1.55;0.80;;;19.00;62.80;;;;;;5081134;28;20040;-40
2021/01/17 14:01:29;;;;;;;1.42;1.00;;;18.90;63.00;;;;;;5085821;28;20050;-39
2021/01/17 14:03:54;;;;;;;1.38;0.60;;;18.90;63.40;;;;;;5086346;28;20039;-40
2021/01/17 14:06:20;;;;;;;0.52;0.43;;;18.90;63.30;;;;;;5085885;28;20043;-41
2021/01/17 14:08:45;;;;;;;1.10;0.80;;;18.90;63.20;;;;;;5087621;28;20471;-38
2021/01/17 14:11:11;;;;;;;1.48;0.95;;;18.80;63.30;;;;;;5085649;28;20051;-39
2021/01/17 14:13:36;;;;;;;1.02;0.80;;;18.80;63.50;;;;;;5083944;28;20047;-35
2021/01/17 14:16:03;;;;;;;1.13;0.68;;;18.80;63.50;;;;;;5084389;28;20040;-37
2021/01/17 14:18:28;;;;;;;1.00;0.68;;;18.70;63.50;;;;;;5087495;28;20165;-39
2021/01/17 14:20:54;;;;;;;1.77;0.60;;;18.70;63.60;;;;;;5086695;28;20527;-39
2021/01/17 14:23:22;;;;;;;1.40;0.82;;;18.80;63.60;;;;;;5086162;28;20070;-38
2021/01/17 14:25:48;;;;;;;0.85;0.70;;;18.70;63.50;;;;;;5083544;28;20048;-44
2021/01/17 14:28:14;;;;;;;1.38;0.60;;;18.80;63.50;;;;;;5084543;27;20283;-41
2021/01/17 14:30:39;;;;;;;0.63;0.50;;;18.70;63.50;;;;;;5083067;28;20029;-38
2021/01/17 14:33:05;;;;;;;2.65;0.73;;;18.70;63.70;;;;;;5086023;28;20048;-45
2021/01/17 14:35:31;;;;;;;0.77;0.55;;;18.70;63.60;;;;;;5085035;28;20089;-41
2021/01/17 14:37:56;;;;;;;0.98;0.70;;;18.70;63.50;;;;;;5085768;28;20048;-40
2021/01/17 14:40:22;;;;;;;1.20;0.82;;;18.70;63.50;;;;;;5083491;28;20398;-40
2021/01/17 14:42:47;;;;;;;1.98;0.85;;;18.70;63.40;;;;;;5087149;28;20059;-42
2021/01/17 14:45:13;;;;;;;0.75;0.70;;;18.70;63.50;;;;;;5086399;28;20093;-38
2021/01/17 14:47:39;;;;;;;0.80;0.50;;;18.70;63.40;;;;;;5087379;28;20470;-36
2021/01/17 14:50:05;;;;;;;1.08;0.85;;;18.70;63.40;;;;;;5084955;28;20058;-38
2021/01/17 14:52:42;;;;;;;2.63;0.70;;;18.70;63.30;;;;;;5084743;28;20040;-40
2021/01/17 14:55:09;;;;;;;0.60;0.50;;;18.70;63.40;;;;;;5081844;28;20051;-42
2021/01/17 14:57:35;;;;;;;1.58;1.00;;;18.70;63.40;;;;;;5088014;28;20117;-39
2021/01/17 15:00:00;;;;;;;1.50;0.80;;;18.70;63.30;;;;;;5087150;28;20044;-38
2021/01/17 15:02:26;;;;;;;0.95;0.80;;;18.70;63.20;;;;;;5086839;27;20067;-39
2021/01/17 15:04:51;;;;;;;1.27;0.70;;;18.70;62.80;;;;;;5087917;28;20048;-37
2021/01/17 15:07:17;;;;;;;1.35;0.77;;;18.80;63.10;;;;;;5088106;28;20086;-36
2021/01/17 15:09:42;;;;;;;1.67;0.82;;;18.80;63.00;;;;;;5082785;28;20040;-37
2021/01/17 15:12:08;;;;;;;2.33;0.60;;;18.80;62.70;;;;;;5082371;28;20077;-37
2021/01/17 15:14:34;;;;;;;0.75;0.70;;;18.80;62.80;;;;;;5083954;28;20067;-37
2021/01/17 15:17:03;;;;;;;1.50;0.70;;;18.70;63.00;;;;;;5087727;28;20044;-38
2021/01/17 15:19:31;;;;;;;1.02;0.75;;;18.70;63.00;;;;;;5085920;28;20066;-37
2021/01/17 15:21:57;;;;;;;1.35;0.77;;;18.70;63.00;;;;;;5089495;28;20551;-37
2021/01/17 15:24:24;;;;;;;1.10;0.60;;;18.70;63.00;;;;;;5089066;28;20040;-36
2021/01/17 15:26:52;;;;;;;1.10;0.52;;;18.70;62.90;;;;;;5087539;28;20410;-35
2021/01/17 15:29:18;;;;;;;1.00;0.52;;;18.70;62.90;;;;;;5079576;28;20052;-38
2021/01/17 15:31:43;;;;;;;1.42;0.70;;;18.70;62.80;;;;;;5082404;28;20527;-36
2021/01/17 15:34:09;;;;;;;0.85;0.60;;;18.70;63.00;;;;;;5085626;27;20081;-39
2021/01/17 15:36:36;;;;;;;1.20;0.85;;;18.70;63.00;;;;;;5086044;28;20055;-38
2021/01/17 15:39:01;;;;;;;1.08;0.80;;;18.70;63.00;;;;;;5083640;28;20081;-38
2021/01/17 15:41:29;;;;;;;0.88;0.70;;;18.70;63.00;;;;;;5088592;28;20101;-35
2021/01/17 15:43:56;;;;;;;0.90;0.50;;;18.70;63.80;;;;;;5087433;28;20067;-38
2021/01/17 15:46:21;;;;;;;1.45;0.60;;;18.70;63.20;;;;;;5087152;28;20058;-36
2021/01/17 15:48:47;;;;;;;1.38;0.77;;;18.70;62.90;;;;;;5082296;28;20496;-41
2021/01/17 15:51:13;;;;;;;1.17;0.73;;;18.70;62.90;;;;;;5086634;28;20047;-35
2021/01/17 15:53:39;;;;;;;0.88;0.70;;;18.70;62.60;;;;;;5088153;28;20085;-35
2021/01/17 15:56:05;;;;;;;0.77;0.52;;;18.70;62.80;;;;;;5086836;28;20517;-36
2021/01/17 15:58:30;;;;;;;0.80;0.63;;;18.70;62.60;;;;;;5088668;27;20032;-33
2021/01/17 16:00:57;;;;;;;1.42;0.50;;;18.70;63.00;;;;;;5087807;28;20047;-34
2021/01/17 16:03:23;;;;;;;0.85;0.60;;;18.70;62.70;;;;;;5089168;27;20501;-32
2021/01/17 16:05:49;;;;;;;0.95;0.80;;;18.70;63.50;;;;;;5096165;27;20051;-33
2021/01/17 16:08:14;;;;;;;1.83;0.75;;;18.70;63.50;;;;;;5088365;28;20117;-33
2021/01/17 16:10:40;;;;;;;1.67;0.90;;;18.70;64.40;;;;;;5088016;27;20067;-36
2021/01/17 16:13:05;;;;;;;1.52;0.93;;;18.70;63.60;;;;;;5095536;27;20040;-34
2021/01/17 16:15:31;;;;;;;1.63;0.82;;;18.60;63.60;;;;;;5088022;28;20096;-36
2021/01/17 16:17:57;;;;;;;1.65;0.60;;;18.60;63.50;;;;;;5089847;28;20040;-35
2021/01/17 16:20:23;;;;;;;1.60;1.00;;;18.60;63.40;;;;;;5085682;28;20074;-33
2021/01/17 16:22:49;;;;;;;1.48;1.05;;;18.60;63.40;;;;;;5088211;28;20118;-38
2021/01/17 16:25:14;;;;;;;1.52;1.05;;;18.60;63.40;;;;;;5088676;28;20131;-34
2021/01/17 16:27:47;;;;;;;1.27;0.80;;;18.50;63.40;;;;;;5086487;28;20044;-38
2021/01/17 16:30:16;;;;;;;0.98;0.77;;;18.50;63.50;;;;;;5086019;28;20047;-34
2021/01/17 16:32:42;;;;;;;1.63;0.70;;;18.50;63.50;;;;;;5086549;28;20029;-34
2021/01/17 16:35:14;;;;;;;1.00;0.60;;;18.50;63.60;;;;;;5086831;28;20040;-36
2021/01/17 16:37:42;;;;;;;1.13;0.80;;;18.50;63.60;;;;;;5083675;28;20044;-41
2021/01/17 16:40:08;;;;;;;1.00;0.80;;;18.40;63.60;;;;;;5085789;28;20052;-34
2021/01/17 16:42:33;;;;;;;0.90;0.80;;;18.40;63.60;;;;;;5086859;28;20055;-37
2021/01/17 16:44:59;;;;;;;1.38;0.60;;;18.40;63.50;;;;;;5087204;28;20048;-41
2021/01/17 16:47:25;;;;;;;1.10;0.70;;;18.40;63.60;;;;;;5087320;28;20044;-35
2021/01/17 16:49:51;;;;;;;1.17;0.68;;;18.40;63.70;;;;;;5084514;28;20451;-35
2021/01/17 16:52:17;;;;;;;0.95;0.50;;;18.40;63.60;;;;;;5088262;28;20048;-35
2021/01/17 16:54:42;;;;;;;0.68;0.52;;;18.40;63.60;;;;;;5085117;28;20047;-35
2021/01/17 16:57:08;;;;;;;0.40;0.40;;;18.40;63.50;;;;;;5089660;28;20040;-34
2021/01/17 16:59:34;;;;;;;0.55;0.50;;;18.40;63.60;;;;;;5083828;28;20093;-35
2021/01/17 17:02:01;;;;;;;1.08;0.73;;;18.30;63.50;;;;;;5086252;28;20044;-34
2021/01/17 17:04:27;;;;;;;1.20;0.50;;;18.30;63.60;;;;;;5086661;28;20044;-30
2021/01/17 17:06:53;;;;;;;3.05;0.60;;;18.40;63.40;;;;;;5085234;28;20055;-35
2021/01/17 17:09:18;;;;;;;0.60;0.50;;;18.50;63.20;;;;;;5086043;28;20492;-33
2021/01/17 17:11:44;;;;;;;1.92;0.80;;;18.40;63.10;;;;;;5089823;27;20031;-39
2021/01/17 17:14:09;;;;;;;1.08;0.55;;;18.40;63.10;;;;;;5087906;28;20163;-37
2021/01/17 17:16:37;;;;;;;1.17;0.80;;;18.40;63.20;;;;;;5085849;28;20068;-36
2021/01/17 17:19:02;;;;;;;2.05;0.80;;;18.40;63.50;;;;;;5086452;28;20493;-33
2021/01/17 17:21:32;;;;;;;0.88;0.70;;;18.50;63.40;;;;;;5086054;28;20035;-33
2021/01/17 17:23:59;;;;;;;0.98;0.70;;;18.50;63.80;;;;;;5088147;28;20362;-33
2021/01/17 17:26:26;;;;;;;0.90;0.55;;;18.50;63.10;;;;;;5088169;28;20071;-34
2021/01/17 17:28:52;;;;;;;1.13;0.68;;;18.50;63.20;;;;;;5084803;28;20164;-34
2021/01/17 17:31:18;;;;;;;2.72;0.77;;;18.60;63.40;;;;;;5087132;28;20509;-33
2021/01/17 17:33:44;;;;;;;2.70;1.13;;;18.60;63.80;;;;;;5085299;28;20046;-35
2021/01/17 17:36:10;;;;;;;1.30;0.77;;;18.60;64.40;;;;;;5083018;28;20126;-36
2021/01/17 17:38:38;;;;;;;2.13;0.85;;;18.60;64.60;;;;;;5080200;28;20139;-30
2021/01/17 17:41:07;;;;;;;10.18;5.70;;;18.70;64.50;;;;;;5086477;27;20040;-35
2021/01/17 17:43:33;;;;;;;11.13;7.82;;;18.70;64.40;;;;;;5082211;28;20044;-36
2021/01/17 17:45:59;;;;;;;4.15;3.40;;;18.70;64.50;;;;;;5085116;28;20105;-35
2021/01/17 17:48:24;;;;;;;6.97;5.70;;;18.70;64.10;;;;;;5079075;28;20040;-35
2021/01/17 17:50:50;;;;;;;10.40;4.38;;;18.70;64.30;;;;;;5083675;28;20044;-33
2021/01/17 17:53:16;;;;;;;4.40;3.97;;;18.60;62.70;;;;;;5083631;28;20048;-32
2021/01/17 17:55:41;;;;;;;5.07;3.88;;;18.50;63.90;;;;;;5085296;28;20043;-37
2021/01/17 17:58:07;;;;;;;5.13;3.60;;;18.50;65.00;;;;;;5080880;27;20040;-36
2021/01/17 18:00:32;;;;;;;6.80;5.40;;;18.60;64.50;;;;;;5081350;28;20075;-36
2021/01/17 18:02:58;;;;;;;9.38;7.35;;;18.70;63.80;;;;;;5086291;28;20058;-34
2021/01/17 18:05:23;;;;;;;11.18;7.47;;;18.70;63.00;;;;;;5083986;28;20044;-37
2021/01/17 18:07:50;;;;;;;7.65;6.30;;;18.70;64.10;;;;;;5082840;28;20424;-34
2021/01/17 18:10:23;;;;;;;8.70;7.38;;;18.80;63.10;;;;;;5084215;28;20043;-35
2021/01/17 18:12:49;;;;;;;10.50;8.43;;;18.80;63.60;;;;;;5085377;28;20048;-35
2021/01/17 18:15:15;;;;;;;9.85;7.97;;;18.90;62.80;;;;;;5084358;28;20047;-35
2021/01/17 18:17:41;;;;;;;10.73;8.13;;;18.90;62.90;;;;;;5080476;28;20527;-33
2021/01/17 18:20:07;;;;;;;11.18;8.65;;;19.00;63.60;;;;;;5084622;28;20093;-34
2021/01/17 18:22:33;;;;;;;13.35;9.73;;;19.00;62.60;;;;;;5082297;28;20144;-40
2021/01/17 18:24:58;;;;;;;10.32;8.30;;;19.00;62.90;;;;;;5082022;28;20560;-34
2021/01/17 18:27:24;;;;;;;11.52;8.70;;;19.10;62.80;;;;;;5084609;28;20078;-34
2021/01/17 18:29:49;;;;;;;11.13;8.40;;;19.10;62.60;;;;;;5080700;28;20119;-37
2021/01/17 18:32:17;;;;;;;9.45;7.68;;;19.00;62.90;;;;;;5082991;28;20044;-35
2021/01/17 18:34:42;;;;;;;8.35;7.55;;;19.00;63.00;;;;;;5082494;28;20043;-35
2021/01/17 18:37:08;;;;;;;8.90;7.53;;;19.00;63.10;;;;;;5084148;28;20205;-34
2021/01/17 18:39:34;;;;;;;9.45;6.95;;;19.10;63.70;;;;;;5083070;27;20040;-39
2021/01/17 18:41:59;;;;;;;8.25;6.88;;;19.10;63.40;;;;;;5085968;28;20070;-36
2021/01/17 18:44:25;;;;;;;11.40;7.78;;;19.10;63.20;;;;;;5083348;28;20093;-34
2021/01/17 18:46:51;;;;;;;10.65;8.10;;;19.00;63.30;;;;;;5079950;28;20454;-43
2021/01/17 18:49:16;;;;;;;10.02;7.13;;;19.00;63.20;;;;;;5084603;28;20449;-42
2021/01/17 18:51:42;;;;;;;11.60;7.68;;;19.00;63.80;;;;;;5083203;28;20048;-36
2021/01/17 18:54:08;;;;;;;9.48;8.40;;;18.90;63.60;;;;;;5085400;28;20070;-32
2021/01/17 18:56:34;;;;;;;9.45;8.35;;;18.90;63.90;;;;;;5084205;28;20131;-37
2021/01/17 18:59:00;;;;;;;10.45;7.43;;;19.00;64.10;;;;;;5071350;28;20207;-42
2021/01/17 19:01:25;;;;;;;9.07;8.05;;;19.00;64.00;;;;;;5083061;28;20032;-36
2021/01/17 19:03:51;;;;;;;8.07;7.30;;;19.00;64.10;;;;;;5083801;28;20039;-48
2021/01/17 19:06:16;;;;;;;8.25;7.22;;;19.00;64.10;;;;;;5083216;28;20052;-36
2021/01/17 19:08:42;;;;;;;8.43;6.88;;;19.00;63.80;;;;;;5082727;28;20135;-46
2021/01/17 19:11:08;;;;;;;10.10;8.07;;;19.00;63.90;;;;;;5085061;27;20044;-42
2021/01/17 19:13:33;;;;;;;8.73;7.90;;;19.00;64.00;;;;;;5086828;28;20054;-36
2021/01/17 19:15:59;;;;;;;9.18;7.07;;;18.90;64.10;;;;;;5078675;28;20052;-37
2021/01/17 19:18:24;;;;;;;7.45;6.82;;;19.00;64.20;;;;;;5081012;28;20051;-35
2021/01/17 19:20:50;;;;;;;6.78;6.13;;;19.00;64.10;;;;;;5082474;28;20044;-37
2021/01/17 19:23:15;;;;;;;6.70;6.10;;;19.00;63.80;;;;;;5079777;28;20609;-45
2021/01/17 19:25:41;;;;;;;7.50;6.78;;;18.90;63.80;;;;;;5084783;28;20044;-33
2021/01/17 19:28:07;;;;;;;7.03;6.32;;;19.00;63.90;;;;;;5081980;28;20473;-37
2021/01/17 19:30:32;;;;;;;6.95;6.25;;;19.00;63.80;;;;;;5082093;28;20046;-38
2021/01/17 19:33:00;;;;;;;8.48;6.50;;;19.00;64.10;;;;;;5085825;28;20048;-38
2021/01/17 19:35:26;;;;;;;7.70;6.97;;;19.00;63.60;;;;;;5085732;27;20055;-36
2021/01/17 19:37:52;;;;;;;6.40;5.80;;;19.00;64.10;;;;;;5084512;28;20064;-34
2021/01/17 19:40:17;;;;;;;5.47;4.97;;;19.00;63.40;;;;;;5083528;28;20066;-34
2021/01/17 19:42:48;;;;;;;5.57;4.93;;;19.10;63.50;;;;;;5086153;27;20105;-31
2021/01/17 19:45:13;;;;;;;6.07;5.47;;;19.20;63.00;;;;;;5078554;28;20079;-39
2021/01/17 19:47:39;;;;;;;7.35;5.63;;;19.20;63.00;;;;;;5082563;28;20063;-39
2021/01/17 19:50:05;;;;;;;6.00;5.40;;;19.10;63.20;;;;;;5080895;28;20405;-35
2021/01/17 19:52:30;;;;;;;7.95;5.65;;;19.20;62.50;;;;;;5082292;28;20043;-39
2021/01/17 19:54:56;;;;;;;7.35;5.82;;;19.20;63.00;;;;;;5080358;28;20056;-35